Time;durP1;ratioP1;P1;durP2;ratioP2;P2;SDS_P1;SDS_P2;PMS_P1;PMS_P2;Temp;Humidity;BMP_temperature;BMP_pressure;BME280_temperature;BME280_humidity;BME280_pressure;Samples;Min_cycle;Max_cycle;Signal;HPM_P1;HPM_P2
2023/04/28 00:00:48;;;;;;;7.03;3.00;;;;;;;-148.88;71.66;76443.53;5053633;28;20025;-77
2023/04/28 00:03:14;;;;;;;7.72;3.10;;;;;;;-148.88;71.62;76443.53;5053502;28;20028;-77
2023/04/28 00:05:40;;;;;;;7.22;2.95;;;;;;;-148.88;71.55;76449.63;5053746;28;20055;-77
2023/04/28 00:08:05;;;;;;;5.82;3.03;;;;;;;-148.88;72.76;76443.53;5035603;28;20107;-78
2023/04/28 00:10:30;;;;;;;7.88;3.05;;;;;;;-148.88;73.02;76447.59;5053463;28;20458;-77
2023/04/28 00:12:56;;;;;;;4.60;3.08;;;;;;;-148.88;73.69;76441.50;5053398;28;20031;-77
2023/04/28 00:15:21;;;;;;;7.95;2.97;;;;;;;-148.88;73.89;76443.53;5053346;28;20025;-77
2023/04/28 00:17:46;;;;;;;6.60;4.45;;;;;;;-148.88;72.67;76453.69;5053411;28;20430;-77
2023/04/28 00:20:12;;;;;;;7.82;3.25;;;;;;;-148.88;72.41;76439.47;5053292;28;20090;-77
2023/04/28 00:22:37;;;;;;;4.70;2.63;;;;;;;-148.88;71.63;76439.47;5035416;28;20025;-77
2023/04/28 00:25:03;;;;;;;6.50;2.88;;;;;;;-148.88;70.60;76435.41;5053182;28;20310;-77
2023/04/28 00:27:29;;;;;;;7.63;4.68;;;;;;;-148.88;70.26;76431.34;5053668;28;20033;-77
2023/04/28 00:29:54;;;;;;;6.10;2.95;;;;;;;-148.88;71.97;76431.34;5053329;28;20079;-77
2023/04/28 00:32:20;;;;;;;8.80;5.15;;;;;;;-148.88;73.12;76443.53;5053058;28;20025;-77
2023/04/28 00:34:45;;;;;;;5.57;2.88;;;;;;;-148.88;74.35;76449.63;5035197;28;20059;-77
2023/04/28 00:37:10;;;;;;;7.90;4.82;;;;;;;-148.88;74.05;76453.69;5035407;28;20020;-77
2023/04/28 00:39:36;;;;;;;6.80;3.28;;;;;;;-148.88;73.52;76451.66;5053306;28;20021;-77
2023/04/28 00:42:03;;;;;;;5.13;2.55;;;;;;;-148.88;74.36;76451.66;5052962;28;20017;-77
2023/04/28 00:44:28;;;;;;;5.95;3.10;;;;;;;-148.88;74.30;76443.53;5052865;28;20468;-77
2023/04/28 00:46:53;;;;;;;9.48;3.53;;;;;;;-148.88;74.88;76435.41;5034911;28;20033;-77
2023/04/28 00:49:19;;;;;;;6.35;3.13;;;;;;;-148.88;75.13;76431.34;5052841;28;20111;-77
2023/04/28 00:51:44;;;;;;;6.90;3.03;;;;;;;-148.88;75.75;76435.41;5052825;28;20060;-77
2023/04/28 00:54:13;;;;;;;7.70;3.33;;;;;;;-148.88;75.85;76433.38;5034764;28;20029;-77
2023/04/28 00:56:38;;;;;;;6.82;3.10;;;;;;;-148.88;76.31;76431.34;5052455;28;20021;-77
2023/04/28 00:59:03;;;;;;;7.47;3.08;;;;;;;-148.88;76.58;76431.34;5052685;28;20029;-77
2023/04/28 01:01:29;;;;;;;5.45;3.05;;;;;;;-148.88;77.32;76435.41;5052715;28;20036;-77
2023/04/28 01:03:55;;;;;;;7.80;3.42;;;;;;;-148.88;76.08;76431.34;5034773;28;20024;-77
2023/04/28 01:06:21;;;;;;;7.85;3.00;;;;;;;-148.88;76.24;76433.38;5052662;28;20564;-77
2023/04/28 01:08:47;;;;;;;8.68;4.55;;;;;;;-148.88;76.92;76443.53;5052621;28;20024;-77
2023/04/28 01:11:13;;;;;;;6.28;3.15;;;;;;;-148.88;77.15;76443.53;5052657;28;20059;-77
2023/04/28 01:13:38;;;;;;;8.05;2.95;;;;;;;-148.88;76.10;76443.53;5034783;28;20514;-77
2023/04/28 01:16:04;;;;;;;9.32;3.17;;;;;;;-148.88;76.37;76443.53;5034610;28;20040;-77
2023/04/28 01:18:30;;;;;;;6.80;3.78;;;;;;;-148.88;76.79;76435.41;5052527;28;20392;-77
2023/04/28 01:20:56;;;;;;;5.88;2.88;;;;;;;-148.88;75.88;76429.31;5052636;28;20470;-77
2023/04/28 01:23:21;;;;;;;7.50;3.15;;;;;;;-148.88;76.50;76439.47;5052458;28;20584;-77
2023/04/28 01:25:46;;;;;;;7.32;2.97;;;;;;;-148.88;76.81;76439.47;5052674;28;20115;-77
2023/04/28 01:28:12;;;;;;;7.32;4.00;;;;;;;-148.88;76.80;76433.38;5052564;28;20021;-77
2023/04/28 01:30:37;;;;;;;8.70;3.58;;;;;;;-148.88;77.12;76435.41;5052466;28;20495;-77
2023/04/28 01:33:02;;;;;;;7.30;3.20;;;;;;;-148.88;77.88;76429.31;5052490;28;20021;-77
2023/04/28 01:35:28;;;;;;;6.68;3.47;;;;;;;-148.88;79.27;76431.34;5034516;28;20017;-77
2023/04/28 01:37:53;;;;;;;9.40;3.13;;;;;;;-148.88;79.24;76421.19;5052262;28;20147;-77
2023/04/28 01:40:19;;;;;;;7.13;3.22;;;;;;;-148.88;79.29;76419.16;5034482;28;20028;-77
2023/04/28 01:42:44;;;;;;;7.40;3.55;;;;;;;-148.88;78.03;76419.16;5052282;28;20071;-77
2023/04/28 01:45:10;;;;;;;7.43;4.70;;;;;;;-148.88;77.72;76411.00;5052219;28;20476;-78
2023/04/28 01:47:35;;;;;;;6.22;3.03;;;;;;;-148.88;77.95;76411.00;5034375;28;20438;-77
2023/04/28 01:50:00;;;;;;;6.07;3.13;;;;;;;-148.88;77.73;76404.91;5034329;28;20074;-77
2023/04/28 01:52:26;;;;;;;6.88;3.17;;;;;;;-148.88;77.40;76406.94;5052217;28;20029;-77
2023/04/28 01:54:59;;;;;;;6.10;3.00;;;;;;;-148.88;78.01;76404.91;5068363;22;20061;-88
2023/04/28 01:57:24;;;;;;;7.32;3.33;;;;;;;-148.88;78.35;76394.75;4996194;28;20129;-89
2023/04/28 01:59:53;;;;;;;5.22;3.03;;;;;;;-148.88;78.75;76392.72;4996148;28;20125;-89
2023/04/28 02:02:18;;;;;;;6.43;3.33;;;;;;;-148.88;79.76;76400.84;4995969;28;20061;-89
2023/04/28 02:04:46;;;;;;;13.20;3.40;;;;;;;-148.88;80.82;76388.66;4995658;28;20025;-89
2023/04/28 02:07:14;;;;;;;6.95;3.08;;;;;;;-148.88;81.28;76390.69;4996221;28;20026;-89
2023/04/28 02:09:40;;;;;;;4.88;2.63;;;;;;;-148.88;81.41;76406.94;5042680;22;20123;-75
2023/04/28 02:12:05;;;;;;;12.07;3.60;;;;;;;-148.88;81.81;76411.00;5055368;28;20060;-75
2023/04/28 02:14:33;;;;;;;7.53;3.50;;;;;;;-148.88;82.41;76402.88;5055225;28;20017;-75
2023/04/28 02:16:58;;;;;;;6.72;3.00;;;;;;;-148.88;82.44;76400.84;5055273;28;20025;-75
2023/04/28 02:19:24;;;;;;;8.45;3.28;;;;;;;-148.88;81.59;76392.72;5055154;28;20394;-74
2023/04/28 02:21:49;;;;;;;8.55;3.30;;;;;;;-148.88;81.24;76394.75;5055248;28;20096;-75
2023/04/28 02:24:14;;;;;;;7.63;3.22;;;;;;;-148.88;80.59;76386.63;5055206;28;20033;-75
2023/04/28 02:26:40;;;;;;;6.10;3.25;;;;;;;-148.88;80.38;76382.56;5055444;28;20542;-75
2023/04/28 02:29:06;;;;;;;8.18;3.60;;;;;;;-148.88;79.93;76378.50;5037555;28;20059;-75
2023/04/28 02:31:31;;;;;;;7.40;3.50;;;;;;;-148.88;80.20;76370.38;5037221;28;20317;-75
2023/04/28 02:33:57;;;;;;;8.50;5.20;;;;;;;-148.88;80.52;76366.31;5036863;28;20029;-75
2023/04/28 02:36:22;;;;;;;7.40;3.67;;;;;;;-148.88;80.45;76368.34;5054995;28;20025;-75
2023/04/28 02:38:47;;;;;;;6.60;3.85;;;;;;;-148.88;81.14;76358.19;5054859;28;20426;-75
2023/04/28 02:41:14;;;;;;;8.05;3.70;;;;;;;-148.88;81.38;76358.19;5054793;28;20049;-75
2023/04/28 02:43:39;;;;;;;6.18;3.33;;;;;;;-148.88;82.06;76360.22;5054911;28;20027;-75
2023/04/28 02:46:05;;;;;;;9.57;5.88;;;;;;;-148.88;82.68;76370.38;5054752;28;20024;-75
2023/04/28 02:48:31;;;;;;;7.18;3.72;;;;;;;-148.88;82.32;76364.28;5054752;28;20016;-76
2023/04/28 02:50:56;;;;;;;14.13;3.88;;;;;;;-148.88;82.81;76364.28;5036856;28;20488;-75
2023/04/28 02:53:21;;;;;;;6.55;3.53;;;;;;;-148.88;82.74;76362.25;5054808;28;20138;-75
2023/04/28 02:55:47;;;;;;;6.43;3.45;;;;;;;-148.88;83.70;76362.25;5036798;28;20475;-75
2023/04/28 02:58:13;;;;;;;7.88;3.47;;;;;;;-148.88;83.87;76358.19;5036591;28;20171;-75
2023/04/28 03:00:38;;;;;;;6.68;3.38;;;;;;;-148.88;83.43;76356.16;5054843;28;20033;-75
2023/04/28 03:03:03;;;;;;;6.38;3.50;;;;;;;-148.88;83.77;76362.25;5054687;28;20164;-75
2023/04/28 03:05:29;;;;;;;9.98;3.72;;;;;;;-148.88;83.90;76364.28;5036996;28;20494;-75
2023/04/28 03:07:54;;;;;;;8.27;3.83;;;;;;;-148.88;84.39;76360.22;5036631;28;20032;-75
2023/04/28 03:10:19;;;;;;;9.48;3.80;;;;;;;-148.88;85.10;76350.06;5036661;28;20037;-75
2023/04/28 03:12:45;;;;;;;6.97;5.57;;;;;;;-148.88;84.92;76346.00;5036336;28;20398;-75
2023/04/28 03:15:10;;;;;;;8.38;5.35;;;;;;;-148.88;84.58;76335.84;5054139;28;20036;-75
2023/04/28 03:17:38;;;;;;;9.32;3.72;;;;;;;-148.88;84.57;76337.88;5054137;28;20028;-75
2023/04/28 03:20:04;;;;;;;10.15;3.85;;;;;;;-148.88;84.09;76329.75;5036169;28;20071;-75
2023/04/28 03:22:30;;;;;;;7.15;3.67;;;;;;;-148.88;83.48;76325.69;5053811;28;20029;-74
2023/04/28 03:24:55;;;;;;;12.07;4.28;;;;;;;-148.88;83.72;76321.63;5054033;28;20045;-75
2023/04/28 03:27:21;;;;;;;12.00;4.32;;;;;;;-148.88;84.26;76323.66;5036041;28;20021;-75
2023/04/28 03:29:46;;;;;;;7.38;3.72;;;;;;;-148.88;84.83;76325.69;5054219;28;20023;-75
2023/04/28 03:32:11;;;;;;;8.57;4.25;;;;;;;-148.88;85.86;76333.81;5054187;28;20017;-77
2023/04/28 03:34:37;;;;;;;7.93;3.72;;;;;;;-148.88;85.41;76329.75;5053964;28;20063;-75
2023/04/28 03:37:02;;;;;;;6.28;4.03;;;;;;;-148.88;86.23;76331.78;5053801;28;20110;-75
2023/04/28 03:39:27;;;;;;;7.03;4.25;;;;;;;-148.88;86.62;76329.75;5054132;28;20037;-75
2023/04/28 03:41:52;;;;;;;9.98;3.90;;;;;;;-148.88;86.35;76321.63;5035954;28;20029;-75
2023/04/28 03:44:18;;;;;;;9.95;4.18;;;;;;;-148.88;86.46;76317.56;5053553;28;20077;-75
2023/04/28 03:46:43;;;;;;;7.50;4.20;;;;;;;-148.88;86.89;76319.59;5035970;28;20024;-75
2023/04/28 03:49:08;;;;;;;7.40;4.00;;;;;;;-148.88;86.33;76315.53;5053614;28;20091;-75
2023/04/28 03:51:33;;;;;;;8.63;4.25;;;;;;;-148.88;85.90;76311.47;5035602;28;20461;-75
2023/04/28 03:53:59;;;;;;;8.52;4.10;;;;;;;-148.88;84.85;76301.31;5053297;28;20399;-75
2023/04/28 03:56:24;;;;;;;9.02;4.60;;;;;;;-148.88;84.80;76307.41;5053366;28;20099;-75
2023/04/28 03:58:50;;;;;;;9.68;4.80;;;;;;;-148.88;84.44;76297.25;5053204;28;20108;-77
2023/04/28 04:01:15;;;;;;;11.55;6.47;;;;;;;-148.88;84.58;76291.16;5053389;28;20032;-76
2023/04/28 04:03:40;;;;;;;10.38;4.35;;;;;;;-148.88;85.18;76297.25;5053605;28;20225;-75
2023/04/28 04:06:06;;;;;;;6.90;4.13;;;;;;;-148.88;85.35;76289.13;5035503;28;20025;-76
2023/04/28 04:08:32;;;;;;;9.00;4.50;;;;;;;-148.88;86.54;76291.16;5053195;28;20463;-76
2023/04/28 04:10:57;;;;;;;7.85;4.32;;;;;;;-148.88;86.85;76301.31;5053235;28;20048;-76
2023/04/28 04:13:23;;;;;;;12.68;4.82;;;;;;;-148.88;86.99;76293.19;5053418;28;20028;-76
2023/04/28 04:15:49;;;;;;;8.65;4.13;;;;;;;-148.88;87.41;76285.06;5035339;28;20438;-76
2023/04/28 04:18:14;;;;;;;8.00;4.18;;;;;;;-148.88;87.48;76283.03;5053342;28;20150;-76
2023/04/28 04:20:40;;;;;;;10.38;4.88;;;;;;;-148.88;87.13;76285.06;5035300;28;20052;-76
2023/04/28 04:23:05;;;;;;;11.55;4.30;;;;;;;-148.88;87.14;76274.91;5052995;28;20108;-76
2023/04/28 04:25:31;;;;;;;8.80;4.65;;;;;;;-148.88;87.29;76272.88;5034895;28;20390;-76
2023/04/28 04:27:57;;;;;;;9.63;4.65;;;;;;;-148.88;87.33;76264.75;5034946;28;20179;-76
2023/04/28 04:30:22;;;;;;;9.95;4.70;;;;;;;-148.88;85.89;76258.66;5052417;28;20086;-76
2023/04/28 04:32:47;;;;;;;10.82;5.07;;;;;;;-148.88;84.23;76248.50;5052830;28;20105;-76
2023/04/28 04:35:13;;;;;;;8.65;5.13;;;;;;;-148.88;83.65;76236.31;5052902;28;20321;-76
2023/04/28 04:37:38;;;;;;;11.68;5.15;;;;;;;-148.88;83.91;76224.13;5053110;28;20035;-76
2023/04/28 04:40:04;;;;;;;13.75;5.45;;;;;;;-148.88;83.12;76220.06;5052824;28;20154;-76
2023/04/28 04:42:30;;;;;;;15.98;5.63;;;;;;;-148.88;82.47;76203.81;5052724;28;20044;-76
2023/04/28 04:44:55;;;;;;;10.40;5.63;;;;;;;-148.88;81.46;76193.66;5052714;28;20051;-78
2023/04/28 04:47:20;;;;;;;12.40;5.43;;;;;;;-148.88;81.24;76183.50;5054302;28;20493;-79
2023/04/28 04:49:47;;;;;;;14.52;8.27;;;;;;;-148.88;78.44;76167.25;5035894;28;20028;-77
2023/04/28 04:52:13;;;;;;;9.45;5.40;;;;;;;-148.88;78.71;76157.09;5035256;28;20025;-76
2023/04/28 04:54:38;;;;;;;10.73;5.15;;;;;;;-148.88;77.85;76146.94;5052962;28;20029;-76
2023/04/28 04:57:03;;;;;;;13.18;5.68;;;;;;;-148.88;78.68;76146.94;5035012;28;20115;-76
2023/04/28 04:59:28;;;;;;;11.55;5.97;;;;;;;-148.88;77.55;76142.88;5052360;28;20476;-76
2023/04/28 05:01:54;;;;;;;12.55;5.13;;;;;;;-148.88;78.10;76138.81;5034395;28;20025;-76
2023/04/28 05:04:19;;;;;;;14.15;6.28;;;;;;;-148.88;76.84;76130.69;5053038;28;20025;-76
2023/04/28 05:06:45;;;;;;;11.15;8.52;;;;;;;-148.88;78.65;76132.72;5052297;28;20044;-76
2023/04/28 05:09:10;;;;;;;10.32;5.30;;;;;;;-148.88;77.99;76124.56;5051930;28;20032;-76
2023/04/28 05:11:37;;;;;;;10.40;5.35;;;;;;;-148.88;77.59;76110.34;5052114;28;20025;-77
2023/04/28 05:14:03;;;;;;;11.43;6.20;;;;;;;-148.88;77.60;76106.28;5052805;28;20028;-77
2023/04/28 05:16:28;;;;;;;12.75;5.72;;;;;;;-148.88;77.88;76106.28;5052956;28;20025;-77
2023/04/28 05:18:54;;;;;;;10.55;6.18;;;;;;;-148.88;78.86;76102.22;5052941;28;20048;-77
2023/04/28 05:21:19;;;;;;;11.40;5.88;;;;;;;-148.88;78.08;76104.25;5052443;28;20023;-76
2023/04/28 05:23:44;;;;;;;15.48;8.70;;;;;;;-148.88;78.43;76100.19;5052298;28;20470;-76
2023/04/28 05:26:09;;;;;;;10.00;5.40;;;;;;;-148.88;78.89;76098.16;5052259;28;20021;-77
2023/04/28 05:28:35;;;;;;;12.40;8.48;;;;;;;-148.88;78.83;76085.97;5052464;28;20107;-76
2023/04/28 05:31:00;;;;;;;15.95;6.30;;;;;;;-148.88;79.76;76094.09;5052517;28;20075;-76
2023/04/28 05:33:26;;;;;;;12.32;6.20;;;;;;;-148.88;79.63;76098.16;5052781;28;20082;-76
2023/04/28 05:35:51;;;;;;;13.93;6.43;;;;;;;-148.88;79.23;76090.03;5034410;28;20477;-76
2023/04/28 05:38:17;;;;;;;10.70;5.90;;;;;;;-148.88;79.37;76085.97;5034268;28;20036;-76
2023/04/28 05:40:42;;;;;;;13.32;8.73;;;;;;;-148.88;79.67;76077.84;5052424;28;20554;-76
2023/04/28 05:43:07;;;;;;;12.70;5.63;;;;;;;-148.88;79.88;76083.94;5036342;28;20056;-76
2023/04/28 05:45:32;;;;;;;14.32;5.85;;;;;;;-148.88;80.55;76075.81;5038020;28;20037;-76
2023/04/28 05:47:58;;;;;;;13.70;5.72;;;;;;;-148.88;79.88;76069.72;5056150;28;20021;-76
2023/04/28 05:50:23;;;;;;;13.43;8.80;;;;;;;-148.88;79.74;76065.66;5056547;28;20025;-76
2023/04/28 05:52:48;;;;;;;12.70;6.00;;;;;;;-148.88;79.51;76061.59;5055706;28;20543;-76
2023/04/28 05:55:14;;;;;;;8.85;5.32;;;;;;;-148.88;80.14;76053.47;5055708;28;20071;-77
2023/04/28 05:57:39;;;;;;;12.07;8.32;;;;;;;-148.88;80.15;76041.28;5037704;28;20074;-76
2023/04/28 06:00:05;;;;;;;11.07;5.55;;;;;;;-148.88;79.40;76037.22;5055844;28;20031;-76
2023/04/28 06:02:31;;;;;;;13.23;9.07;;;;;;;-148.88;79.93;76029.09;5055924;28;20017;-77
2023/04/28 06:04:56;;;;;;;12.65;8.73;;;;;;;-148.88;79.86;76025.03;5055532;28;20021;-76
2023/04/28 06:07:21;;;;;;;13.75;8.95;;;;;;;-148.88;78.94;76016.91;5037630;28;20040;-76
2023/04/28 06:09:47;;;;;;;11.02;5.68;;;;;;;-148.88;79.75;76012.84;5055758;28;20057;-76
2023/04/28 06:12:12;;;;;;;10.73;8.88;;;;;;;-148.88;79.46;76006.75;5055707;28;20475;-76
2023/04/28 06:14:39;;;;;;;12.32;9.18;;;;;;;-148.88;80.66;76004.72;5055464;28;20021;-76
2023/04/28 06:17:05;;;;;;;12.98;6.85;;;;;;;-148.88;79.79;75996.59;5055045;28;20036;-76
2023/04/28 06:19:30;;;;;;;12.48;9.23;;;;;;;-148.88;78.88;75994.56;5037151;28;20033;-76
2023/04/28 06:21:55;;;;;;;11.18;6.05;;;;;;;-148.88;78.72;76000.66;5055018;28;20419;-76
2023/04/28 06:24:20;;;;;;;12.95;8.77;;;;;;;-148.88;78.99;75992.53;5037224;28;20032;-76
2023/04/28 06:26:46;;;;;;;12.50;6.75;;;;;;;-148.88;78.72;75988.47;5055298;28;20028;-76
2023/04/28 06:29:11;;;;;;;12.05;6.03;;;;;;;-148.88;79.67;75980.34;5036954;28;20047;-76
2023/04/28 06:31:36;;;;;;;14.43;9.57;;;;;;;-148.88;79.15;75974.25;5054848;28;20487;-76
2023/04/28 06:34:01;;;;;;;14.05;6.28;;;;;;;-148.88;79.14;75970.19;5054813;28;20045;-76
2023/04/28 06:36:27;;;;;;;11.10;5.88;;;;;;;-148.88;78.08;75964.09;5054819;28;20586;-76
2023/04/28 06:38:52;;;;;;;19.65;9.20;;;;;;;-148.88;78.85;75943.78;5055142;28;20028;-76
2023/04/28 06:41:18;;;;;;;13.52;9.27;;;;;;;-148.88;80.43;75931.59;5055136;28;20375;-76
2023/04/28 06:43:43;;;;;;;15.05;9.20;;;;;;;-148.88;81.73;75933.63;5054818;28;20033;-76
2023/04/28 06:46:10;;;;;;;11.38;6.13;;;;;;;-148.88;82.66;75935.66;5054841;28;20032;-76
2023/04/28 06:48:36;;;;;;;12.85;9.60;;;;;;;-148.88;84.58;75947.84;5054620;28;20029;-76
2023/04/28 06:51:03;;;;;;;11.25;6.60;;;;;;;-148.88;87.54;75945.81;5054359;28;20028;-76
2023/04/28 06:53:28;;;;;;;11.15;7.20;;;;;;;-148.88;87.88;75949.88;5036072;28;20454;-76
2023/04/28 06:55:55;;;;;;;11.50;6.55;;;;;;;-148.88;89.21;75951.91;5036700;28;20086;-76
2023/04/28 06:58:20;;;;;;;17.25;10.48;;;;;;;-148.88;86.56;75947.84;5054476;28;20079;-76
2023/04/28 07:00:45;;;;;;;14.80;10.10;;;;;;;-148.88;86.68;75951.91;5036390;28;20119;-76
2023/04/28 07:03:11;;;;;;;11.85;6.70;;;;;;;-148.88;88.95;75941.75;5054761;28;20166;-76
2023/04/28 07:05:36;;;;;;;16.23;10.80;;;;;;;-148.88;86.72;75949.88;5054827;28;20031;-76
2023/04/28 07:08:02;;;;;;;16.27;10.73;;;;;;;-148.88;87.55;75933.63;5036427;28;20456;-76
2023/04/28 07:10:27;;;;;;;13.15;7.22;;;;;;;-148.88;88.84;75921.44;5036114;28;20040;-75
2023/04/28 07:12:53;;;;;;;15.25;10.90;;;;;;;-148.88;88.26;75923.47;5054115;28;20032;-76
2023/04/28 07:15:18;;;;;;;14.52;10.75;;;;;;;-148.88;88.14;75923.47;5036138;28;20360;-76
2023/04/28 07:17:43;;;;;;;15.02;10.48;;;;;;;-148.88;86.99;75923.47;5036637;28;20033;-76
2023/04/28 07:20:09;;;;;;;12.98;6.35;;;;;;;-148.88;84.61;75923.47;5054096;28;20036;-76
2023/04/28 07:22:34;;;;;;;12.35;6.78;;;;;;;-148.88;84.08;75927.53;5054078;28;20017;-76
2023/04/28 07:24:59;;;;;;;15.57;10.35;;;;;;;-148.88;85.85;75915.34;5053896;28;20033;-76
2023/04/28 07:27:25;;;;;;;13.05;6.57;;;;;;;-148.88;87.57;75903.16;5053849;28;20036;-76
2023/04/28 07:29:50;;;;;;;15.90;10.88;;;;;;;-148.88;86.36;75903.16;5053771;28;20021;-76
2023/04/28 07:32:15;;;;;;;14.15;7.07;;;;;;;-148.88;86.45;75899.09;5054198;28;20033;-76
2023/04/28 07:34:41;;;;;;;16.98;10.52;;;;;;;-148.88;86.75;75895.03;5053884;28;20045;-76
2023/04/28 07:37:10;;;;;;;15.02;10.15;;;;;;;-148.88;85.59;75884.88;5053799;28;20021;-76
2023/04/28 07:39:38;;;;;;;14.77;6.90;;;;;;;-148.88;83.33;75876.75;5053804;28;20040;-76
2023/04/28 07:42:03;;;;;;;13.13;9.57;;;;;;;-148.88;84.36;75878.78;5053854;28;20044;-76
2023/04/28 07:44:29;;;;;;;12.10;6.57;;;;;;;-148.88;83.00;75876.75;5053643;28;20388;-76
2023/04/28 07:46:57;;;;;;;14.40;6.05;;;;;;;-148.88;83.52;75858.47;5053626;28;20040;-76
2023/04/28 07:49:22;;;;;;;11.45;6.07;;;;;;;-148.88;83.05;75866.59;5053511;28;20434;-76
2023/04/28 07:51:48;;;;;;;13.55;9.98;;;;;;;-148.88;84.12;75854.41;5053551;28;20017;-76
2023/04/28 07:54:13;;;;;;;14.50;9.95;;;;;;;-148.88;83.12;75846.28;5053582;28;20468;-76
2023/04/28 07:56:39;;;;;;;13.00;6.15;;;;;;;-148.88;82.38;75838.16;5053842;28;20479;-76
2023/04/28 07:59:04;;;;;;;14.20;10.23;;;;;;;-148.88;84.07;75825.97;5035548;28;20021;-76
2023/04/28 08:01:32;;;;;;;19.33;10.52;;;;;;;-148.88;83.15;75815.81;5053603;28;20401;-75
2023/04/28 08:03:58;;;;;;;15.23;10.52;;;;;;;-148.88;81.28;75809.72;5053637;28;20053;-76
2023/04/28 08:06:23;;;;;;;11.95;6.53;;;;;;;-148.88;83.30;75789.41;5052465;28;20021;-76
2023/04/28 08:08:49;;;;;;;16.30;10.10;;;;;;;-148.88;85.75;75775.19;5035346;28;20021;-76
2023/04/28 08:11:14;;;;;;;17.92;10.73;;;;;;;-148.88;86.64;75760.97;5053275;28;20033;-76
2023/04/28 08:13:39;;;;;;;11.27;6.82;;;;;;;-148.88;87.25;75760.97;5035165;28;20028;-76
2023/04/28 08:16:05;;;;;;;16.42;7.13;;;;;;;-148.88;85.27;75750.81;5035110;28;20028;-76
2023/04/28 08:18:30;;;;;;;14.88;10.82;;;;;;;-148.88;86.47;75746.75;5053049;28;20032;-76
2023/04/28 08:20:56;;;;;;;15.25;10.65;;;;;;;-148.88;85.35;75740.66;5053550;28;20017;-76
2023/04/28 08:23:21;;;;;;;18.27;10.95;;;;;;;-148.88;83.84;75748.78;5052963;28;20498;-76
2023/04/28 08:25:46;;;;;;;15.85;10.15;;;;;;;-148.88;85.05;75740.66;5052814;28;20024;-76
2023/04/28 08:28:12;;;;;;;17.05;7.15;;;;;;;-148.88;84.02;75740.66;5052848;28;20020;-76
2023/04/28 08:30:37;;;;;;;12.70;6.75;;;;;;;-148.88;84.20;75734.56;5035308;28;20029;-76
2023/04/28 08:33:03;;;;;;;15.00;10.23;;;;;;;-148.88;83.08;75732.53;5052737;28;20467;-76
2023/04/28 08:35:29;;;;;;;13.38;7.55;;;;;;;-148.88;83.32;75732.53;5050882;28;20032;-76
2023/04/28 08:37:54;;;;;;;13.45;10.15;;;;;;;-148.88;84.61;75728.47;5052239;28;20502;-76
2023/04/28 08:40:19;;;;;;;13.15;10.07;;;;;;;-148.88;83.85;75720.34;5052365;28;20142;-76
2023/04/28 08:42:46;;;;;;;14.23;10.45;;;;;;;-148.88;83.55;75722.38;5052205;28;20025;-76
2023/04/28 08:45:15;;;;;;;13.45;9.90;;;;;;;-148.88;83.37;75710.19;5034498;28;20025;-76
2023/04/28 08:47:44;;;;;;;14.77;10.02;;;;;;;-148.88;83.15;75714.25;5052509;28;20028;-77
2023/04/28 08:50:13;;;;;;;15.48;7.05;;;;;;;-148.88;84.81;75712.22;5034253;28;20478;-76
2023/04/28 08:52:40;;;;;;;14.45;10.50;;;;;;;-148.88;83.54;75710.19;5033926;28;20024;-76
2023/04/28 08:55:11;;;;;;;14.73;10.20;;;;;;;-148.88;83.70;75702.06;5051849;28;20025;-76
2023/04/28 08:57:55;;;;;;;13.63;9.38;;;;;;;-148.88;84.12;75700.03;5052159;28;20036;-76
2023/04/28 09:00:20;;;;;;;13.73;9.95;;;;;;;-148.88;84.13;75700.03;5052759;28;20033;-76
2023/04/28 09:02:46;;;;;;;13.00;10.45;;;;;;;-148.88;84.50;75704.09;5052711;28;20029;-77
2023/04/28 09:05:12;;;;;;;13.75;9.75;;;;;;;-148.88;84.66;75704.09;5052349;28;20067;-76
2023/04/28 09:07:39;;;;;;;14.38;10.35;;;;;;;-148.88;83.64;75704.09;5034389;28;20035;-77
2023/04/28 09:10:24;;;;;;;14.45;10.20;;;;;;;-148.88;85.34;75700.03;5053184;28;20111;-80
2023/04/28 09:12:51;;;;;;;13.05;10.43;;;;;;;-148.88;84.95;75704.09;5052523;28;20071;-76
2023/04/28 09:15:35;;;;;;;15.77;11.43;;;;;;;-148.88;84.75;75695.97;5052142;28;20028;-76
2023/04/28 09:18:02;;;;;;;17.77;10.47;;;;;;;-148.88;84.29;75702.06;5055628;28;20045;-76
2023/04/28 09:20:30;;;;;;;12.43;7.28;;;;;;;-148.88;84.31;75687.84;5056380;28;20265;-77
2023/04/28 09:23:11;;;;;;;14.15;9.88;;;;;;;-148.88;83.78;75687.84;5056316;28;20056;-77
2023/04/28 09:25:36;;;;;;;12.27;9.85;;;;;;;-148.88;84.75;75683.78;5038817;28;20040;-77
2023/04/28 09:28:18;;;;;;;14.32;10.18;;;;;;;-148.88;86.02;75675.66;5038057;28;20017;-77
2023/04/28 09:30:44;;;;;;;14.15;10.13;;;;;;;-148.88;84.93;75683.78;5056115;28;20073;-77
2023/04/28 09:33:09;;;;;;;16.45;10.00;;;;;;;-148.88;85.62;75667.53;5055929;28;20047;-77
2023/04/28 09:35:39;;;;;;;14.00;10.27;;;;;;;-148.88;85.60;75651.28;5055843;28;20020;-77
2023/04/28 09:38:05;;;;;;;12.07;9.10;;;;;;;-148.88;84.56;75639.09;5055884;28;20025;-77
2023/04/28 09:40:30;;;;;;;14.88;10.15;;;;;;;-148.88;85.83;75622.84;5056013;28;20087;-77
2023/04/28 09:42:55;;;;;;;15.07;10.32;;;;;;;-148.88;85.94;75610.66;5055966;28;20025;-77
2023/04/28 09:45:21;;;;;;;13.48;10.48;;;;;;;-148.88;85.93;75624.88;5037822;28;20025;-77
2023/04/28 09:47:46;;;;;;;13.80;10.57;;;;;;;-148.88;88.86;75606.59;5056003;28;20071;-77
2023/04/28 09:50:13;;;;;;;12.43;10.30;;;;;;;-148.88;91.36;75614.72;5056102;28;20024;-76
2023/04/28 09:52:56;;;;;;;13.73;10.45;;;;;;;-148.88;93.14;75614.72;5056111;28;20020;-77
2023/04/28 09:55:23;;;;;;;13.77;10.48;;;;;;;-148.88;93.49;75618.78;5055838;28;20055;-77
2023/04/28 09:57:50;;;;;;;14.02;10.65;;;;;;;-148.88;94.17;75608.63;5055809;28;20024;-77
2023/04/28 10:00:17;;;;;;;13.48;10.45;;;;;;;-148.88;94.24;75622.84;5055343;28;20507;-77
2023/04/28 10:02:42;;;;;;;14.27;10.85;;;;;;;-148.88;95.33;75614.72;5037549;28;20559;-76
2023/04/28 10:05:08;;;;;;;16.05;10.60;;;;;;;-148.88;96.88;75598.47;5055309;28;20199;-76
2023/04/28 10:07:34;;;;;;;15.70;11.07;;;;;;;-148.88;97.40;75598.47;5055374;28;20025;-76
2023/04/28 10:10:00;;;;;;;12.18;10.32;;;;;;;-148.88;96.93;75586.31;5055005;28;20021;-76
2023/04/28 10:12:26;;;;;;;13.50;10.18;;;;;;;-148.88;94.48;75580.22;5055191;28;20025;-76
2023/04/28 10:14:55;;;;;;;16.35;10.45;;;;;;;-148.88;94.50;75582.22;5055233;28;20025;-76
2023/04/28 10:17:24;;;;;;;13.82;10.95;;;;;;;-148.88;94.45;75586.31;5055208;28;20036;-77
2023/04/28 10:19:52;;;;;;;16.73;10.52;;;;;;;-148.88;96.75;75574.13;5037152;28;20029;-76
2023/04/28 10:22:42;;;;;;;14.88;11.57;;;;;;;-148.88;96.44;75561.94;5037253;28;20025;-76
2023/04/28 10:25:24;;;;;;;14.25;11.35;;;;;;;-148.88;95.60;75576.13;5054978;28;20453;-75
2023/04/28 10:27:49;;;;;;;14.88;11.57;;;;;;;-148.88;96.28;75570.03;5049137;28;20028;-76
2023/04/28 10:30:20;;;;;;;15.20;11.60;;;;;;;-148.88;96.75;75561.94;5055384;28;20037;-76
2023/04/28 10:32:47;;;;;;;14.43;11.32;;;;;;;-148.88;96.08;75547.72;5055479;28;20071;-76
2023/04/28 10:35:22;;;;;;;15.82;12.18;;;;;;;-148.88;95.77;75529.44;5055070;28;20021;-76
2023/04/28 10:38:07;;;;;;;14.23;11.43;;;;;;;-148.88;95.27;75509.13;5053677;28;20120;-77
2023/04/28 10:40:37;;;;;;;15.27;12.07;;;;;;;-148.88;95.34;75472.56;5054331;28;20060;-76
2023/04/28 10:43:04;;;;;;;17.52;12.27;;;;;;;-148.88;94.50;75448.19;5054908;28;20044;-76
2023/04/28 10:45:48;;;;;;;16.55;12.32;;;;;;;-148.88;95.43;75407.56;5054982;28;20029;-77
2023/04/28 10:48:14;;;;;;;15.98;11.20;;;;;;;-148.88;94.19;75391.31;5053713;28;20029;-77
2023/04/28 10:51:08;;;;;;;13.45;10.43;;;;;;;-148.88;92.74;75366.94;5053690;28;20083;-76
2023/04/28 10:53:47;;;;;;;14.50;11.07;;;;;;;-148.88;91.95;75320.22;5055098;28;20024;-76
2023/04/28 10:56:15;;;;;;;16.40;11.90;;;;;;;-148.88;90.95;75285.69;5055101;28;20021;-77
2023/04/28 10:58:42;;;;;;;20.58;12.23;;;;;;;-148.88;90.07;75277.59;5054770;28;20560;-77
2023/04/28 11:03:49;;;;;;;13.60;11.02;;;;;;;-148.88;90.40;75277.59;5054611;28;20072;-76
2023/04/28 11:06:27;;;;;;;16.20;10.50;;;;;;;-148.88;92.24;75301.94;5036332;28;20048;-76
2023/04/28 11:08:56;;;;;;;14.07;11.10;;;;;;;-148.88;92.02;75285.69;5054535;28;20096;-76